Time;durP1;ratioP1;P1;durP2;ratioP2;P2;SDS_P1;SDS_P2;PMS_P1;PMS_P2;Temp;Humidity;BMP_temperature;BMP_pressure;BME280_temperature;BME280_humidity;BME280_pressure;Samples;Min_cycle;Max_cycle;Signal;HPM_P1;HPM_P2
2022/04/25 00:00:47;;;;;;;16.50;9.88;;;7.90;99.90;;;;;;4772850;30;20055;-64
2022/04/25 00:03:13;;;;;;;14.13;10.77;;;7.90;99.90;;;;;;4790796;30;20099;-64
2022/04/25 00:05:38;;;;;;;17.02;11.27;;;8.00;99.90;;;;;;4774160;30;20098;-64
2022/04/25 00:08:05;;;;;;;17.80;11.02;;;8.00;99.90;;;;;;4789452;30;20051;-63
2022/04/25 00:10:30;;;;;;;14.55;10.63;;;8.00;99.90;;;;;;4789049;30;20477;-64
2022/04/25 00:12:56;;;;;;;15.15;10.90;;;8.00;99.90;;;;;;4790614;30;20132;-64
2022/04/25 00:15:21;;;;;;;14.38;10.70;;;8.00;99.90;;;;;;4789958;30;20063;-64
2022/04/25 00:17:47;;;;;;;14.82;10.98;;;8.10;99.90;;;;;;4774143;30;20051;-65
2022/04/25 00:20:13;;;;;;;13.48;10.32;;;8.10;99.90;;;;;;4774269;30;20059;-65
2022/04/25 00:22:39;;;;;;;16.35;10.98;;;8.10;99.90;;;;;;4789090;30;20519;-63
2022/04/25 00:25:05;;;;;;;17.25;10.63;;;8.10;99.90;;;;;;4774331;30;20059;-64
2022/04/25 00:27:31;;;;;;;15.98;10.90;;;8.10;99.90;;;;;;4774013;30;20485;-65
2022/04/25 00:29:56;;;;;;;17.23;10.98;;;8.10;99.90;;;;;;4790187;30;20067;-64
2022/04/25 00:32:23;;;;;;;19.90;11.98;;;8.10;99.90;;;;;;4788567;30;20065;-64
2022/04/25 00:34:49;;;;;;;17.17;11.93;;;8.10;99.90;;;;;;4790162;30;20354;-65
2022/04/25 00:37:14;;;;;;;15.68;11.55;;;8.10;99.90;;;;;;4774068;30;20135;-66
2022/04/25 00:39:40;;;;;;;17.50;12.95;;;8.10;99.90;;;;;;4788498;30;20139;-65
2022/04/25 00:42:06;;;;;;;16.30;12.40;;;8.10;99.90;;;;;;4773478;30;20304;-66
2022/04/25 00:44:32;;;;;;;17.52;12.57;;;8.00;99.90;;;;;;4789879;30;20076;-65
2022/04/25 00:46:59;;;;;;;18.60;11.88;;;8.00;99.90;;;;;;4773134;30;20066;-65
2022/04/25 00:49:25;;;;;;;21.58;12.40;;;8.00;99.90;;;;;;4789890;30;20106;-66
2022/04/25 00:51:54;;;;;;;17.75;13.57;;;7.90;99.90;;;;;;4773708;30;20071;-65
2022/04/25 00:54:23;;;;;;;16.85;12.68;;;7.90;99.90;;;;;;4773403;30;20051;-65
2022/04/25 00:56:49;;;;;;;20.23;13.02;;;7.90;99.90;;;;;;4788601;30;20067;-65
2022/04/25 00:59:17;;;;;;;20.83;13.85;;;7.90;99.90;;;;;;4789809;30;20070;-66
2022/04/25 01:01:43;;;;;;;19.77;13.07;;;7.90;99.90;;;;;;4773059;30;20059;-64
2022/04/25 01:04:09;;;;;;;21.88;13.82;;;7.90;99.90;;;;;;4789883;30;20480;-65
2022/04/25 01:06:35;;;;;;;19.73;12.68;;;7.90;99.90;;;;;;4789638;30;20095;-66
2022/04/25 01:09:00;;;;;;;20.52;14.15;;;7.90;99.90;;;;;;4788525;30;20059;-65
2022/04/25 01:11:27;;;;;;;18.70;13.68;;;7.90;99.90;;;;;;4772049;30;20567;-65
2022/04/25 01:13:53;;;;;;;24.58;14.55;;;7.80;99.90;;;;;;4789677;30;20089;-66
2022/04/25 01:16:18;;;;;;;22.00;15.10;;;7.90;99.90;;;;;;4787874;29;20053;-64
2022/04/25 01:18:44;;;;;;;22.20;14.95;;;7.90;99.90;;;;;;4773075;30;20090;-64
2022/04/25 01:21:12;;;;;;;21.45;15.23;;;7.80;99.90;;;;;;4773251;30;20059;-63
2022/04/25 01:29:08;;;;;;;20.92;13.68;;;7.80;99.90;;;;;;4787945;30;20528;-65
2022/04/25 01:31:33;;;;;;;23.67;14.80;;;7.70;99.90;;;;;;4772374;30;20116;-64
2022/04/25 01:33:59;;;;;;;23.30;15.55;;;7.70;99.90;;;;;;4789198;30;20059;-64
2022/04/25 01:36:25;;;;;;;23.70;15.23;;;7.70;99.90;;;;;;4787890;30;20075;-64
2022/04/25 01:38:54;;;;;;;21.83;15.32;;;7.60;99.90;;;;;;4787692;30;20086;-65
2022/04/25 01:41:20;;;;;;;21.65;15.20;;;7.60;99.90;;;;;;4788652;30;20494;-64
2022/04/25 01:43:46;;;;;;;23.02;14.80;;;7.50;99.90;;;;;;4789024;30;20095;-65
2022/04/25 01:46:11;;;;;;;23.63;15.77;;;7.50;99.90;;;;;;4787433;30;20457;-65
2022/04/25 01:48:37;;;;;;;25.50;15.95;;;7.50;99.90;;;;;;4772565;30;20082;-65
2022/04/25 01:51:03;;;;;;;24.38;15.88;;;7.40;99.90;;;;;;4787478;30;20059;-65
2022/04/25 01:53:29;;;;;;;28.00;16.42;;;7.40;99.90;;;;;;4789040;30;20065;-63
2022/04/25 01:55:55;;;;;;;24.45;16.42;;;7.40;99.90;;;;;;4788009;30;20055;-66
2022/04/25 01:58:21;;;;;;;25.65;17.30;;;7.30;99.90;;;;;;4788561;30;20150;-64
2022/04/25 02:00:47;;;;;;;24.02;16.40;;;7.30;99.90;;;;;;4787594;29;20145;-64
2022/04/25 02:03:13;;;;;;;21.48;16.35;;;7.30;99.90;;;;;;4787733;30;20087;-64
2022/04/25 02:05:39;;;;;;;22.77;16.17;;;7.30;99.90;;;;;;4788889;30;20070;-65
2022/04/25 02:08:05;;;;;;;25.45;16.60;;;7.20;99.90;;;;;;4773076;30;20134;-63
2022/04/25 02:10:31;;;;;;;24.65;16.85;;;7.10;99.90;;;;;;4788282;30;20077;-65
2022/04/25 02:12:56;;;;;;;23.55;16.13;;;7.10;99.90;;;;;;4788192;30;20116;-64
2022/04/25 02:15:22;;;;;;;25.25;17.15;;;7.00;99.90;;;;;;4788553;30;20144;-64
2022/04/25 02:17:48;;;;;;;23.52;16.50;;;7.00;99.90;;;;;;4788568;30;20080;-65
2022/04/25 02:20:14;;;;;;;25.23;16.80;;;7.00;99.90;;;;;;4772612;30;20459;-65
2022/04/25 02:22:40;;;;;;;23.40;16.30;;;6.90;99.90;;;;;;4787999;29;20127;-64
2022/04/25 02:25:06;;;;;;;28.60;16.35;;;6.90;99.90;;;;;;4788238;30;20134;-65
2022/04/25 02:27:32;;;;;;;28.65;17.50;;;6.90;99.90;;;;;;4786858;29;20051;-65
2022/04/25 02:29:58;;;;;;;27.30;16.60;;;6.90;99.90;;;;;;4771933;30;20062;-65
2022/04/25 02:32:30;;;;;;;22.80;15.70;;;6.90;99.90;;;;;;4771967;30;20493;-64
2022/04/25 02:34:56;;;;;;;22.38;17.00;;;6.90;99.90;;;;;;4786881;30;20134;-65
2022/04/25 02:37:22;;;;;;;27.73;17.20;;;6.90;99.90;;;;;;4788462;30;20095;-64
2022/04/25 02:39:48;;;;;;;25.38;15.80;;;6.90;99.90;;;;;;4786862;30;20063;-65
2022/04/25 02:42:14;;;;;;;22.85;16.20;;;6.90;99.90;;;;;;4771613;30;20070;-64
2022/04/25 02:44:39;;;;;;;22.75;16.60;;;6.90;99.90;;;;;;4771953;30;20052;-64
2022/04/25 02:47:05;;;;;;;24.88;16.55;;;6.90;99.90;;;;;;4756542;30;20062;-64
2022/04/25 02:49:31;;;;;;;22.60;16.08;;;6.90;99.90;;;;;;4788325;30;20059;-65
2022/04/25 02:51:57;;;;;;;21.98;15.82;;;7.00;99.90;;;;;;4788095;30;20423;-64
2022/04/25 02:54:22;;;;;;;21.77;14.20;;;7.00;99.90;;;;;;4788037;30;20070;-64
2022/04/25 02:56:48;;;;;;;24.48;15.45;;;7.00;99.90;;;;;;4787659;30;20426;-65
2022/04/25 02:59:14;;;;;;;23.30;15.25;;;7.00;99.90;;;;;;4771878;30;20058;-64
2022/04/25 03:01:40;;;;;;;24.95;15.85;;;7.10;99.90;;;;;;4771294;30;20063;-63
2022/04/25 03:04:06;;;;;;;24.58;15.38;;;7.00;99.90;;;;;;4787730;30;20063;-64
2022/04/25 03:06:32;;;;;;;24.77;15.27;;;7.00;99.90;;;;;;4787814;30;20051;-64
2022/04/25 03:08:57;;;;;;;24.48;15.50;;;7.00;99.90;;;;;;4786509;30;20124;-64
2022/04/25 03:11:24;;;;;;;21.52;14.32;;;7.10;99.90;;;;;;4771480;30;20111;-65
2022/04/25 03:13:50;;;;;;;21.75;14.43;;;7.10;99.90;;;;;;4786691;29;20055;-63
2022/04/25 03:16:17;;;;;;;19.58;14.80;;;7.00;99.90;;;;;;4771212;30;20108;-63
2022/04/25 03:18:43;;;;;;;21.77;14.60;;;7.00;99.90;;;;;;4771689;30;20055;-64
2022/04/25 03:21:08;;;;;;;19.55;14.13;;;7.10;99.90;;;;;;4787787;30;20058;-64
2022/04/25 03:23:36;;;;;;;24.02;15.13;;;7.00;99.90;;;;;;4786333;30;20513;-64
2022/04/25 03:26:01;;;;;;;21.30;14.68;;;7.00;99.90;;;;;;4787967;30;20413;-65
2022/04/25 03:28:27;;;;;;;25.92;15.13;;;7.00;99.90;;;;;;4786097;30;20067;-64
2022/04/25 03:30:52;;;;;;;22.42;14.30;;;7.00;99.90;;;;;;4771123;30;20055;-64
2022/04/25 03:33:19;;;;;;;19.70;14.05;;;6.90;99.90;;;;;;4786746;29;20396;-64
2022/04/25 03:35:46;;;;;;;23.05;14.50;;;7.00;99.90;;;;;;4790281;30;20070;-65
2022/04/25 03:38:13;;;;;;;22.60;14.25;;;6.90;99.90;;;;;;4791363;30;20051;-63
2022/04/25 03:40:39;;;;;;;26.08;14.93;;;6.90;99.90;;;;;;4774980;30;20631;-64
2022/04/25 03:43:08;;;;;;;23.30;14.18;;;7.00;99.90;;;;;;4774924;30;20058;-65
2022/04/25 03:45:34;;;;;;;24.83;14.23;;;7.00;99.90;;;;;;4774298;30;20556;-65
2022/04/25 03:48:00;;;;;;;19.83;14.55;;;7.00;99.90;;;;;;4790907;30;20047;-65
2022/04/25 03:50:25;;;;;;;22.63;14.40;;;7.00;99.90;;;;;;4790977;30;20481;-64
2022/04/25 03:52:51;;;;;;;21.83;14.25;;;7.00;99.90;;;;;;4791224;30;20055;-65
2022/04/25 03:58:04;;;;;;;20.30;14.40;;;7.00;99.90;;;;;;4789306;30;20051;-63
2022/04/25 04:00:30;;;;;;;20.65;13.98;;;7.00;99.90;;;;;;4790029;30;20061;-65
2022/04/25 04:02:58;;;;;;;23.08;15.02;;;7.00;99.90;;;;;;4790683;30;20138;-63
2022/04/25 04:05:24;;;;;;;23.17;14.50;;;7.00;99.90;;;;;;4791077;30;20062;-65
2022/04/25 04:07:50;;;;;;;21.50;13.80;;;7.00;99.90;;;;;;4790734;30;20138;-64
2022/04/25 04:10:17;;;;;;;20.70;14.07;;;7.00;99.90;;;;;;4773995;30;20370;-64
2022/04/25 04:12:46;;;;;;;19.15;14.18;;;7.00;99.90;;;;;;4773314;30;20058;-65
2022/04/25 04:15:13;;;;;;;20.08;13.65;;;7.10;99.90;;;;;;4789315;30;20141;-65
2022/04/25 04:17:39;;;;;;;21.60;14.20;;;7.00;99.90;;;;;;4772856;30;20151;-64
2022/04/25 04:20:06;;;;;;;22.95;14.75;;;7.10;99.90;;;;;;4773467;30;20070;-65
2022/04/25 04:22:33;;;;;;;22.05;14.40;;;7.10;99.90;;;;;;4789175;30;20051;-65
2022/04/25 04:25:00;;;;;;;23.08;14.25;;;7.10;99.90;;;;;;4789253;30;20155;-65
2022/04/25 04:27:29;;;;;;;20.75;13.85;;;7.10;99.90;;;;;;4772815;30;20075;-64
2022/04/25 04:29:54;;;;;;;21.00;14.52;;;7.10;99.90;;;;;;4773293;30;20477;-64
2022/04/25 04:32:20;;;;;;;22.45;15.38;;;7.10;99.90;;;;;;4772801;30;20061;-64
2022/04/25 04:34:45;;;;;;;23.70;14.75;;;7.10;99.90;;;;;;4773562;30;20063;-64
2022/04/25 04:37:11;;;;;;;22.73;14.18;;;7.20;99.90;;;;;;4772669;30;20509;-64
2022/04/25 04:39:36;;;;;;;20.92;14.23;;;7.10;99.90;;;;;;4773251;30;20150;-64
2022/04/25 04:42:02;;;;;;;20.63;13.73;;;7.20;99.90;;;;;;4787764;30;20498;-65
2022/04/25 04:44:28;;;;;;;18.60;13.55;;;7.10;99.90;;;;;;4789102;30;20059;-63
2022/04/25 04:46:53;;;;;;;27.58;14.57;;;7.10;99.90;;;;;;4787559;29;20091;-65
2022/04/25 04:49:19;;;;;;;20.73;14.50;;;7.20;99.90;;;;;;4772959;30;20059;-64
2022/04/25 04:51:44;;;;;;;23.25;15.02;;;7.20;99.90;;;;;;4788952;30;20363;-64
2022/04/25 04:54:10;;;;;;;22.42;14.80;;;7.20;99.90;;;;;;4788707;30;20394;-65
2022/04/25 04:56:36;;;;;;;18.90;14.15;;;7.20;99.90;;;;;;4772655;30;20062;-65
2022/04/25 04:59:02;;;;;;;21.38;14.75;;;7.30;99.90;;;;;;4772471;30;20067;-63
2022/04/25 05:01:27;;;;;;;20.25;14.30;;;7.30;99.90;;;;;;4772108;30;20545;-65
2022/04/25 05:03:55;;;;;;;18.80;12.80;;;7.30;99.90;;;;;;4772520;30;20138;-64
2022/04/25 05:06:21;;;;;;;18.73;13.73;;;7.30;99.90;;;;;;4788673;30;20055;-65
2022/04/25 05:08:47;;;;;;;25.55;13.32;;;7.30;99.90;;;;;;4772615;30;20066;-64
2022/04/25 05:11:12;;;;;;;17.10;13.75;;;7.30;99.90;;;;;;4784231;29;117234;-64
2022/04/25 05:13:38;;;;;;;19.98;13.70;;;7.30;99.90;;;;;;4773522;30;20595;-65
2022/04/25 05:16:04;;;;;;;18.35;13.32;;;7.30;99.90;;;;;;4773245;30;20147;-64
2022/04/25 05:18:33;;;;;;;20.17;12.68;;;7.30;99.90;;;;;;4773313;30;20134;-65
2022/04/25 05:20:59;;;;;;;21.63;13.35;;;7.40;99.90;;;;;;4788567;30;20059;-64
2022/04/25 05:23:25;;;;;;;17.30;12.73;;;7.40;99.90;;;;;;4773377;30;20073;-64
2022/04/25 05:25:51;;;;;;;19.35;12.43;;;7.50;99.90;;;;;;4789741;30;20138;-65
2022/04/25 05:28:16;;;;;;;19.23;12.80;;;7.50;99.90;;;;;;4773421;30;20090;-65
2022/04/25 05:30:43;;;;;;;18.80;12.25;;;7.50;99.90;;;;;;4789057;30;20494;-64
2022/04/25 05:33:09;;;;;;;19.33;12.38;;;7.50;99.90;;;;;;4789404;30;20447;-65
2022/04/25 05:35:35;;;;;;;20.33;13.07;;;7.50;99.90;;;;;;4773717;30;20051;-64
2022/04/25 05:38:02;;;;;;;17.98;12.50;;;7.50;99.90;;;;;;4787909;30;20063;-63
2022/04/25 05:40:27;;;;;;;18.90;12.30;;;7.50;99.90;;;;;;4772496;30;20066;-64
2022/04/25 05:42:56;;;;;;;16.48;12.02;;;7.50;99.90;;;;;;4789224;30;20051;-65
2022/04/25 05:45:24;;;;;;;18.60;12.05;;;7.50;99.90;;;;;;4772421;30;20521;-63
2022/04/25 05:47:51;;;;;;;17.73;12.43;;;7.50;99.90;;;;;;4789121;30;20098;-63
2022/04/25 05:53:03;;;;;;;17.60;12.20;;;7.50;99.90;;;;;;4788865;30;20142;-63
2022/04/25 05:55:29;;;;;;;18.10;12.23;;;7.60;99.90;;;;;;4772681;30;20059;-63
2022/04/25 05:57:56;;;;;;;17.77;12.75;;;7.60;99.90;;;;;;4771998;30;20062;-63
2022/04/25 06:00:22;;;;;;;17.77;11.82;;;7.70;99.90;;;;;;4787510;30;20059;-63
2022/04/25 06:02:51;;;;;;;18.60;11.77;;;7.60;99.90;;;;;;4772480;30;20055;-63
2022/04/25 06:05:17;;;;;;;17.40;11.57;;;7.60;99.90;;;;;;4787971;30;20075;-63
2022/04/25 06:07:45;;;;;;;19.17;12.45;;;7.70;99.90;;;;;;4787473;30;20055;-64
2022/04/25 06:10:12;;;;;;;22.38;12.48;;;7.80;99.90;;;;;;4788446;30;20059;-63
2022/04/25 06:12:47;;;;;;;17.83;12.32;;;7.90;99.90;;;;;;4788658;30;20059;-64
2022/04/25 06:15:14;;;;;;;17.30;11.95;;;7.90;99.90;;;;;;4772651;30;20063;-64
2022/04/25 06:17:39;;;;;;;15.38;10.85;;;7.90;99.90;;;;;;4788098;30;20382;-63
2022/04/25 06:20:06;;;;;;;16.77;11.27;;;8.00;99.90;;;;;;4788650;30;20112;-63
2022/04/25 06:22:33;;;;;;;16.02;10.65;;;8.00;99.90;;;;;;4788078;30;20581;-64
2022/04/25 06:24:58;;;;;;;16.08;11.32;;;8.00;99.90;;;;;;4788573;30;20820;-65
2022/04/25 06:27:24;;;;;;;18.83;12.23;;;8.00;99.90;;;;;;4788189;30;20135;-64
2022/04/25 06:29:52;;;;;;;16.60;11.30;;;8.00;99.90;;;;;;4772103;30;20493;-64
2022/04/25 06:32:19;;;;;;;16.20;11.73;;;8.00;99.90;;;;;;4786546;29;20130;-65
2022/04/25 06:34:44;;;;;;;17.42;11.45;;;8.00;99.90;;;;;;4772372;30;20139;-64
2022/04/25 06:37:10;;;;;;;17.35;11.25;;;7.90;99.90;;;;;;4772482;30;20473;-65
2022/04/25 06:39:35;;;;;;;17.00;11.88;;;8.00;99.90;;;;;;4772446;30;20058;-64
2022/04/25 06:42:01;;;;;;;15.68;11.60;;;7.90;99.90;;;;;;4771992;30;20055;-63
2022/04/25 06:44:27;;;;;;;17.85;11.98;;;8.00;99.90;;;;;;4772311;30;20145;-63
2022/04/25 06:46:53;;;;;;;20.73;12.30;;;8.00;99.90;;;;;;4771825;30;20086;-64
2022/04/25 06:49:23;;;;;;;20.08;12.65;;;8.10;99.90;;;;;;4771782;30;20473;-64
2022/04/25 06:51:59;;;;;;;16.58;12.77;;;8.00;99.90;;;;;;4786358;29;20075;-65
2022/04/25 06:54:27;;;;;;;16.40;12.35;;;8.00;99.90;;;;;;4787073;30;20069;-64
2022/04/25 06:56:54;;;;;;;18.85;12.73;;;8.00;99.90;;;;;;4771780;30;20060;-64
2022/04/25 06:59:21;;;;;;;17.33;13.38;;;7.90;99.90;;;;;;4788197;30;20084;-64
2022/04/25 07:01:48;;;;;;;17.60;13.68;;;7.90;99.90;;;;;;4787365;30;20146;-64
2022/04/25 07:04:14;;;;;;;18.85;13.32;;;7.90;99.90;;;;;;4787246;30;20078;-63
2022/04/25 07:06:40;;;;;;;21.23;12.98;;;7.90;99.90;;;;;;4787731;30;20388;-64
2022/04/25 07:09:07;;;;;;;19.70;12.60;;;7.90;99.90;;;;;;4786665;30;20059;-63
2022/04/25 07:11:33;;;;;;;18.25;12.93;;;7.90;99.90;;;;;;4786075;30;20060;-64
2022/04/25 07:14:02;;;;;;;16.45;12.82;;;7.80;99.90;;;;;;4787907;30;20127;-63
2022/04/25 07:16:28;;;;;;;19.13;13.40;;;7.80;99.90;;;;;;4771219;30;20051;-63
2022/04/25 07:18:55;;;;;;;20.50;12.85;;;7.70;99.90;;;;;;4787965;30;20073;-65
2022/04/25 07:29:37;;;;;;;17.35;11.13;;;7.80;99.90;;;;;;4786486;30;20063;-65
2022/04/25 07:32:02;;;;;;;15.27;10.18;;;7.70;99.90;;;;;;4786889;30;20063;-65
2022/04/25 07:34:28;;;;;;;17.58;10.95;;;7.70;99.90;;;;;;4771701;30;20051;-64
2022/04/25 07:36:54;;;;;;;13.63;9.80;;;7.70;99.90;;;;;;4771101;30;20109;-64
2022/04/25 07:39:20;;;;;;;14.75;10.70;;;7.70;99.90;;;;;;4786633;30;20051;-64
2022/04/25 07:41:47;;;;;;;13.57;10.60;;;7.70;99.90;;;;;;4771310;30;20215;-65
2022/04/25 07:44:13;;;;;;;14.95;11.50;;;7.70;99.90;;;;;;4771401;30;20548;-64
2022/04/25 07:46:40;;;;;;;13.38;10.35;;;7.70;99.90;;;;;;4786951;30;20055;-65
2022/04/25 07:49:09;;;;;;;16.02;10.75;;;7.60;99.90;;;;;;4787331;30;20529;-65
2022/04/25 07:51:42;;;;;;;16.13;11.35;;;7.70;99.90;;;;;;4787154;30;20482;-66
2022/04/25 07:54:09;;;;;;;14.07;11.23;;;7.70;99.90;;;;;;4787618;30;20105;-64
2022/04/25 07:56:35;;;;;;;12.63;11.00;;;7.70;99.90;;;;;;4787238;30;20055;-65
2022/04/25 07:59:01;;;;;;;17.85;11.50;;;7.70;99.90;;;;;;4771497;30;20130;-65
2022/04/25 08:01:30;;;;;;;16.95;11.80;;;7.70;99.90;;;;;;4770468;30;20063;-64
2022/04/25 08:03:56;;;;;;;15.80;11.70;;;7.70;99.90;;;;;;4756829;30;20104;-64
2022/04/25 08:06:22;;;;;;;17.23;11.50;;;7.80;99.90;;;;;;4771405;30;20484;-65
2022/04/25 08:08:49;;;;;;;15.55;10.57;;;7.70;99.90;;;;;;4787518;30;20055;-64
2022/04/25 08:11:15;;;;;;;17.02;11.63;;;7.70;99.90;;;;;;4787254;30;20063;-64
2022/04/25 08:19:09;;;;;;;14.45;10.98;;;7.70;99.90;;;;;;4785960;30;20481;-64
2022/04/25 08:21:37;;;;;;;15.77;11.10;;;7.80;99.90;;;;;;4773321;30;20055;-66
2022/04/25 08:24:03;;;;;;;18.23;11.93;;;7.90;99.90;;;;;;4774821;30;20055;-65
2022/04/25 08:26:28;;;;;;;15.65;12.05;;;7.90;99.90;;;;;;4774097;30;20066;-66
2022/04/25 08:28:54;;;;;;;15.15;11.00;;;7.90;99.90;;;;;;4791052;30;20093;-65
2022/04/25 08:31:21;;;;;;;13.70;11.35;;;8.00;99.90;;;;;;4788628;30;20081;-66
2022/04/25 08:33:48;;;;;;;18.85;11.63;;;8.10;99.90;;;;;;4774174;30;20058;-66
2022/04/25 08:36:18;;;;;;;19.05;12.07;;;8.20;99.90;;;;;;4790465;30;20083;-65
2022/04/25 08:38:46;;;;;;;16.45;12.00;;;8.30;99.90;;;;;;4774337;30;20504;-64
2022/04/25 08:41:15;;;;;;;15.60;11.90;;;8.40;99.90;;;;;;4790299;30;20051;-64
2022/04/25 08:43:41;;;;;;;17.15;12.63;;;8.60;99.90;;;;;;4790368;30;20137;-65
2022/04/25 08:46:11;;;;;;;17.02;12.30;;;8.60;99.90;;;;;;4774064;30;20143;-65
2022/04/25 08:48:38;;;;;;;19.83;12.82;;;8.50;99.90;;;;;;4790378;30;20086;-64
2022/04/25 08:51:04;;;;;;;18.73;12.30;;;8.50;99.90;;;;;;4789858;30;20055;-64
2022/04/25 08:53:32;;;;;;;17.33;12.05;;;8.40;99.90;;;;;;4774009;30;20373;-63
2022/04/25 08:55:59;;;;;;;18.10;12.98;;;8.50;99.90;;;;;;4789877;30;20047;-63
2022/04/25 08:58:26;;;;;;;17.52;11.82;;;8.50;99.90;;;;;;4788931;30;20529;-65
2022/04/25 09:00:53;;;;;;;15.68;10.98;;;8.50;99.90;;;;;;4788005;30;20079;-64
2022/04/25 09:03:18;;;;;;;17.38;12.05;;;8.50;99.90;;;;;;4774743;30;20440;-65
2022/04/25 09:05:44;;;;;;;16.00;11.02;;;8.60;99.90;;;;;;4788987;30;20138;-64
2022/04/25 09:08:09;;;;;;;16.45;11.23;;;8.60;99.90;;;;;;4789848;30;20116;-64
2022/04/25 09:10:36;;;;;;;16.00;11.10;;;8.60;99.90;;;;;;4789815;30;20063;-65
2022/04/25 09:13:02;;;;;;;15.82;11.38;;;8.60;99.90;;;;;;4773447;30;20051;-64
2022/04/25 09:15:28;;;;;;;16.45;11.82;;;8.70;99.90;;;;;;4773401;30;20055;-63
2022/04/25 09:17:55;;;;;;;15.52;11.35;;;8.80;99.90;;;;;;4788233;30;20082;-64
2022/04/25 09:20:21;;;;;;;15.07;11.75;;;8.80;99.90;;;;;;4788246;30;20551;-64
2022/04/25 09:22:47;;;;;;;15.48;10.77;;;8.80;99.90;;;;;;4773555;30;20123;-66
2022/04/25 09:25:15;;;;;;;14.90;11.23;;;8.80;99.90;;;;;;4773041;30;20063;-64
2022/04/25 09:27:41;;;;;;;13.98;10.88;;;8.80;99.90;;;;;;4773099;30;20080;-65
2022/04/25 09:30:13;;;;;;;16.15;10.75;;;8.90;99.90;;;;;;4788288;30;20084;-66
2022/04/25 09:32:43;;;;;;;12.45;9.63;;;8.90;99.90;;;;;;4771867;30;20063;-64
2022/04/25 09:35:30;;;;;;;12.38;9.68;;;9.00;99.90;;;;;;4788683;30;20382;-64
2022/04/25 09:37:57;;;;;;;10.75;8.93;;;9.10;99.90;;;;;;4788579;30;20406;-65
2022/04/25 09:40:30;;;;;;;11.52;9.25;;;9.20;99.90;;;;;;4788027;29;20459;-65
2022/04/25 09:43:13;;;;;;;13.25;10.00;;;9.30;99.90;;;;;;4788147;29;20507;-65
2022/04/25 09:45:42;;;;;;;12.68;8.52;;;9.40;99.90;;;;;;4772691;30;20066;-64
2022/04/25 09:48:16;;;;;;;12.63;9.57;;;9.40;99.90;;;;;;4789311;30;20070;-65
2022/04/25 09:50:43;;;;;;;10.63;8.90;;;9.30;99.90;;;;;;4789083;30;20081;-65
2022/04/25 09:53:10;;;;;;;13.25;8.60;;;9.30;99.90;;;;;;4773163;30;20051;-64
2022/04/25 09:55:38;;;;;;;12.85;9.13;;;9.20;99.90;;;;;;4788684;30;20512;-66
2022/04/25 09:58:22;;;;;;;9.63;8.15;;;9.10;99.90;;;;;;4787620;30;20063;-66
2022/04/25 10:00:53;;;;;;;10.68;8.10;;;8.90;99.90;;;;;;4788110;30;20094;-64
2022/04/25 10:03:33;;;;;;;10.35;7.88;;;8.80;99.90;;;;;;4787684;30;20489;-65
2022/04/25 10:06:02;;;;;;;10.80;8.40;;;8.70;99.90;;;;;;4787589;29;20163;-65
2022/04/25 10:08:31;;;;;;;11.77;8.23;;;8.70;99.90;;;;;;4788753;30;20135;-65
2022/04/25 10:10:59;;;;;;;10.02;7.75;;;8.60;99.90;;;;;;4787054;29;20066;-64
2022/04/25 10:13:25;;;;;;;13.23;8.35;;;8.70;99.90;;;;;;4773256;30;20063;-65
2022/04/25 10:15:51;;;;;;;12.43;9.18;;;8.80;99.90;;;;;;4788287;30;20051;-64
2022/04/25 10:18:19;;;;;;;10.57;7.80;;;8.90;99.90;;;;;;4787404;29;20071;-65
2022/04/25 10:20:46;;;;;;;11.20;7.97;;;8.90;99.90;;;;;;4771981;30;20059;-65
2022/04/25 10:23:13;;;;;;;10.35;8.02;;;8.90;99.90;;;;;;4788008;30;20087;-65
2022/04/25 10:25:45;;;;;;;11.82;7.80;;;8.90;99.90;;;;;;4788180;30;20150;-65
2022/04/25 10:28:29;;;;;;;10.68;7.75;;;9.00;99.90;;;;;;4772541;30;20063;-66
2022/04/25 10:31:02;;;;;;;14.13;7.90;;;9.20;99.90;;;;;;4771426;30;20150;-65
2022/04/25 10:33:49;;;;;;;12.48;7.50;;;9.20;99.90;;;;;;4787574;29;20059;-65
2022/04/25 10:36:37;;;;;;;12.70;8.60;;;9.30;99.90;;;;;;4786901;30;20059;-67
2022/04/25 10:39:24;;;;;;;14.75;8.27;;;9.40;99.90;;;;;;4787039;29;20485;-64
2022/04/25 10:44:37;;;;;;;11.85;7.68;;;9.50;99.90;;;;;;4788000;30;20059;-65
2022/04/25 10:47:05;;;;;;;11.55;7.53;;;9.60;99.90;;;;;;4787723;30;20062;-65
2022/04/25 10:49:52;;;;;;;11.73;7.50;;;9.70;99.90;;;;;;4786967;29;20059;-65
2022/04/25 10:55:30;;;;;;;9.95;7.78;;;9.70;99.90;;;;;;4788122;30;20051;-67
2022/04/25 10:58:04;;;;;;;11.40;7.70;;;9.80;99.90;;;;;;4785722;30;20051;-65
2022/04/25 11:00:36;;;;;;;8.85;7.53;;;10.00;99.90;;;;;;4786439;29;20447;-66
2022/04/25 11:03:19;;;;;;;12.52;7.47;;;10.30;99.90;;;;;;4786763;29;20063;-65
2022/04/25 11:05:50;;;;;;;8.63;6.28;;;10.60;99.90;;;;;;4787590;30;20059;-65
2022/04/25 11:08:16;;;;;;;11.38;7.10;;;10.90;99.90;;;;;;4772056;30;20082;-66
2022/04/25 11:10:45;;;;;;;9.45;7.28;;;11.10;99.90;;;;;;4786404;30;20171;-65
2022/04/25 11:13:12;;;;;;;8.52;6.65;;;11.30;99.90;;;;;;4787963;30;20063;-63
2022/04/25 11:15:39;;;;;;;10.20;7.38;;;11.30;99.90;;;;;;4787333;30;20197;-63
2022/04/25 11:18:27;;;;;;;9.85;7.65;;;11.20;99.90;;;;;;4787971;30;20071;-63
2022/04/25 11:20:56;;;;;;;9.73;6.93;;;11.10;99.90;;;;;;4787617;30;20056;-63
2022/04/25 11:23:30;;;;;;;10.05;7.65;;;11.00;99.90;;;;;;4788431;30;20462;-63
2022/04/25 11:25:56;;;;;;;9.98;8.48;;;11.00;99.90;;;;;;4786369;30;20051;-62
2022/04/25 11:28:22;;;;;;;10.65;7.85;;;11.10;99.90;;;;;;4787738;30;20126;-62
2022/04/25 11:31:13;;;;;;;9.38;7.70;;;11.20;99.90;;;;;;4786911;30;20095;-63
2022/04/25 11:33:46;;;;;;;10.45;7.85;;;11.20;99.90;;;;;;4787672;30;20055;-65
2022/04/25 11:36:13;;;;;;;9.38;7.72;;;11.20;99.90;;;;;;4771315;30;20071;-65
2022/04/25 11:41:24;;;;;;;9.07;7.68;;;11.20;99.90;;;;;;4786280;30;20078;-66
2022/04/25 11:43:50;;;;;;;9.15;7.60;;;11.20;99.90;;;;;;4787629;30;20134;-65
2022/04/25 11:46:16;;;;;;;9.23;8.23;;;11.30;99.90;;;;;;4786428;30;20506;-66
2022/04/25 11:48:42;;;;;;;8.10;7.30;;;11.40;99.90;;;;;;4786314;30;20066;-63
2022/04/25 11:51:08;;;;;;;13.27;7.68;;;11.40;99.90;;;;;;4786441;30;20081;-64
2022/04/25 11:53:34;;;;;;;9.77;7.80;;;11.40;99.90;;;;;;4786429;30;20055;-66
2022/04/25 11:56:16;;;;;;;11.15;7.78;;;11.50;99.90;;;;;;4789095;29;20084;-66
2022/04/25 11:58:42;;;;;;;8.90;7.55;;;11.50;99.90;;;;;;4790197;30;20053;-66
2022/04/25 12:01:11;;;;;;;13.18;7.97;;;11.70;99.90;;;;;;4790572;30;20049;-66
2022/04/25 12:03:36;;;;;;;13.45;8.30;;;11.90;99.90;;;;;;4791028;30;20319;-65
2022/04/25 12:06:11;;;;;;;8.75;7.72;;;12.10;99.90;;;;;;4789774;30;20074;-66
2022/04/25 12:16:50;;;;;;;9.23;6.45;;;13.10;99.90;;;;;;4789995;30;20055;-66
2022/04/25 12:19:17;;;;;;;9.80;7.85;;;13.10;99.90;;;;;;4789214;30;20135;-64
2022/04/25 12:21:47;;;;;;;8.68;7.22;;;13.10;99.90;;;;;;4789280;30;20108;-63
2022/04/25 12:24:19;;;;;;;8.20;6.97;;;13.30;99.90;;;;;;4774692;30;20055;-64
2022/04/25 12:26:45;;;;;;;9.65;7.03;;;13.40;99.90;;;;;;4790626;30;20052;-65
2022/04/25 12:29:12;;;;;;;11.18;7.10;;;13.60;99.90;;;;;;4790477;30;20527;-66
2022/04/25 12:31:48;;;;;;;9.98;7.20;;;13.80;99.90;;;;;;4773942;30;20102;-66
2022/04/25 12:34:16;;;;;;;8.18;7.38;;;13.90;99.90;;;;;;4789277;30;20055;-64
2022/04/25 12:36:56;;;;;;;10.93;7.80;;;13.80;99.90;;;;;;4774247;30;20477;-66
2022/04/25 12:39:21;;;;;;;8.77;7.85;;;13.70;99.90;;;;;;4789040;30;20517;-65
2022/04/25 12:41:56;;;;;;;10.82;7.10;;;13.80;99.90;;;;;;4789192;30;20087;-65
2022/04/25 12:44:23;;;;;;;9.40;7.72;;;13.80;99.90;;;;;;4789185;30;20062;-66
2022/04/25 12:47:12;;;;;;;10.27;7.90;;;13.80;99.90;;;;;;4788705;30;20058;-65
2022/04/25 12:49:39;;;;;;;9.48;7.32;;;13.90;99.90;;;;;;4790461;30;20055;-65
2022/04/25 12:52:07;;;;;;;9.65;7.75;;;14.00;99.90;;;;;;4773636;30;20051;-64
2022/04/25 12:54:33;;;;;;;9.18;7.95;;;13.90;99.90;;;;;;4790055;30;20127;-65
2022/04/25 12:57:15;;;;;;;12.32;7.75;;;13.80;99.90;;;;;;4789934;30;20108;-65
2022/04/25 12:59:42;;;;;;;8.88;7.63;;;13.70;99.90;;;;;;4788833;30;20063;-65
2022/04/25 13:02:21;;;;;;;11.18;7.80;;;13.60;99.90;;;;;;4773407;30;20063;-65
2022/04/25 13:04:54;;;;;;;8.57;7.28;;;13.60;99.90;;;;;;4788432;29;20063;-66
2022/04/25 13:07:27;;;;;;;12.57;7.90;;;13.40;99.90;;;;;;4789741;29;20051;-65
2022/04/25 13:09:55;;;;;;;12.15;8.50;;;13.40;99.90;;;;;;4789630;30;20099;-66
2022/04/25 13:12:23;;;;;;;9.18;8.15;;;13.20;99.90;;;;;;4773645;30;20055;-65
2022/04/25 13:14:48;;;;;;;10.60;8.48;;;13.20;99.90;;;;;;4789488;30;20112;-64
2022/04/25 13:17:14;;;;;;;9.65;7.93;;;13.10;99.90;;;;;;4772845;30;20063;-65
2022/04/25 13:19:40;;;;;;;9.90;8.20;;;13.00;99.90;;;;;;4773203;30;20058;-65
2022/04/25 13:22:06;;;;;;;10.65;7.93;;;12.90;99.90;;;;;;4773481;30;20111;-64